createdAt,value
2022-07-26T00:01:22.965Z,18.52
2022-07-26T00:03:51.975Z,22.80
2022-07-26T00:06:20.298Z,19.92
2022-07-26T00:08:49.117Z,17.80
2022-07-26T00:11:17.486Z,23.30
2022-07-26T00:13:47.699Z,18.85
2022-07-26T00:16:16.175Z,24.15
2022-07-26T00:18:44.869Z,25.45
2022-07-26T00:21:13.261Z,24.52
2022-07-26T00:23:41.726Z,20.85
2022-07-26T00:26:10.241Z,23.45
2022-07-26T00:28:39.041Z,26.90
2022-07-26T00:31:09.035Z,21.13
2022-07-26T00:33:37.445Z,21.00
2022-07-26T00:36:06.295Z,20.35
2022-07-26T00:38:34.849Z,21.45
2022-07-26T00:41:03.750Z,22.67
2022-07-26T00:43:32.247Z,21.60
2022-07-26T00:46:01.980Z,22.25
2022-07-26T00:48:31.988Z,23.35
2022-07-26T00:51:00.445Z,18.98
2022-07-26T00:53:28.822Z,22.63
2022-07-26T00:55:57.380Z,24.42
2022-07-26T00:58:25.754Z,18.92
2022-07-26T01:00:54.641Z,21.90
2022-07-26T01:03:23.132Z,17.02
2022-07-26T01:05:59.121Z,22.60
2022-07-26T01:08:27.610Z,20.95
2022-07-26T01:10:56.278Z,21.50
2022-07-26T01:13:25.947Z,21.70
2022-07-26T04:38:39.412Z,12.10
2022-07-26T05:02:22.303Z,14.65
2022-07-26T05:08:59.824Z,10.82
2022-07-26T05:11:32.724Z,10.02
2022-07-26T05:14:14.498Z,17.30
2022-07-26T05:20:51.189Z,9.40
2022-07-26T05:23:27.248Z,7.32
2022-07-26T05:25:56.397Z,10.70
2022-07-26T05:28:24.742Z,5.57
2022-07-26T05:30:53.296Z,10.40
2022-07-26T05:33:21.468Z,6.40
2022-07-26T05:35:53.511Z,9.55
2022-07-26T05:38:21.855Z,7.55
2022-07-26T05:40:50.880Z,9.25
2022-07-26T05:43:19.301Z,12.57
2022-07-26T05:45:47.572Z,5.82
2022-07-26T05:48:15.724Z,9.98
2022-07-26T05:50:44.040Z,7.93
2022-07-26T05:53:13.553Z,7.40
2022-07-26T05:55:41.772Z,9.95
2022-07-26T05:58:09.982Z,5.45
2022-07-26T06:00:38.072Z,6.53
2022-07-26T06:03:22.097Z,8.52
2022-07-26T06:05:51.339Z,4.45
2022-07-26T06:08:21.297Z,6.90
2022-07-26T06:10:50.292Z,12.43
2022-07-26T06:13:18.629Z,5.95
2022-07-26T06:15:47.568Z,11.27
2022-07-26T06:18:15.877Z,11.30
2022-07-26T06:20:45.423Z,6.05
2022-07-26T06:23:14.217Z,9.43
2022-07-26T06:25:44.672Z,10.77
2022-07-26T06:28:12.859Z,11.52
2022-07-26T06:30:41.416Z,9.35
2022-07-26T06:33:09.767Z,11.63
2022-07-26T06:35:39.237Z,12.93
2022-07-26T06:38:08.320Z,9.90
2022-07-26T06:40:36.756Z,8.93
2022-07-26T06:43:06.275Z,9.50
2022-07-26T06:45:34.850Z,9.15
2022-07-26T06:48:03.096Z,6.88
2022-07-26T06:50:31.384Z,11.45
2022-07-26T06:52:59.700Z,10.77
2022-07-26T06:55:27.807Z,10.95
2022-07-26T06:57:55.938Z,8.43
2022-07-26T07:00:25.450Z,9.43
2022-07-26T07:02:53.575Z,15.02
2022-07-26T07:05:21.945Z,8.88
2022-07-26T07:07:50.048Z,10.88
2022-07-26T07:10:21.249Z,7.47
2022-07-26T07:12:52.505Z,9.77
2022-07-26T07:15:21.054Z,8.93
2022-07-26T07:17:51.681Z,9.80
2022-07-26T07:20:31.714Z,6.90
2022-07-26T07:28:03.560Z,10.68
2022-07-26T07:53:31.009Z,6.03
2022-07-26T07:56:28.501Z,8.35
2022-07-26T08:11:30.384Z,7.38
2022-07-26T08:13:58.748Z,5.20
2022-07-26T08:16:26.960Z,10.88
2022-07-26T08:19:08.679Z,9.82
2022-07-26T08:21:37.133Z,11.98
2022-07-26T08:24:06.160Z,8.80
2022-07-26T08:26:35.711Z,6.60
2022-07-26T08:29:06.484Z,8.80
2022-07-26T08:31:34.886Z,10.13
2022-07-26T08:34:03.146Z,10.70
2022-07-26T08:36:32.913Z,10.13
2022-07-26T08:39:01.546Z,8.45
2022-07-26T08:41:29.892Z,10.10
2022-07-26T08:44:06.717Z,10.75
2022-07-26T08:46:36.758Z,8.57
2022-07-26T08:49:08.472Z,10.45
2022-07-26T08:51:39.828Z,9.48
2022-07-26T08:54:08.577Z,15.05
2022-07-26T08:56:38.448Z,8.90
2022-07-26T08:59:19.721Z,12.63
2022-07-26T09:01:54.473Z,9.82
2022-07-26T09:04:46.648Z,10.45
2022-07-26T09:07:19.560Z,11.18
2022-07-26T09:10:08.537Z,7.47
2022-07-26T09:12:37.149Z,8.80
2022-07-26T09:15:13.044Z,5.22
2022-07-26T09:17:44.149Z,5.18
2022-07-26T09:20:19.178Z,11.07
2022-07-26T09:23:00.391Z,9.55
2022-07-26T09:25:30.225Z,16.50
2022-07-26T09:28:04.470Z,6.82
2022-07-26T09:30:34.225Z,9.85
2022-07-26T09:33:05.093Z,10.10
2022-07-26T09:35:52.237Z,7.72
2022-07-26T09:38:45.634Z,12.98
2022-07-26T09:41:21.510Z,10.60
2022-07-26T09:43:54.370Z,9.77
2022-07-26T09:46:26.160Z,8.35
2022-07-26T09:49:12.480Z,9.23
2022-07-26T09:51:45.919Z,7.38
2022-07-26T09:54:40.095Z,7.80
2022-07-26T09:57:54.752Z,9.18
2022-07-26T10:00:25.861Z,9.60
2022-07-26T10:02:55.415Z,9.95
2022-07-26T10:05:23.894Z,8.23
2022-07-26T10:07:52.764Z,14.30
2022-07-26T10:10:24.481Z,16.23
2022-07-26T10:12:54.588Z,20.38
2022-07-26T10:15:42.986Z,16.75
2022-07-26T10:18:33.812Z,13.70
2022-07-26T10:21:20.551Z,14.40
2022-07-26T10:23:57.049Z,12.88
2022-07-26T10:27:02.978Z,14.77
2022-07-26T10:29:31.245Z,13.10
2022-07-26T10:32:23.855Z,15.02
2022-07-26T10:34:53.699Z,21.80
2022-07-26T10:37:30.693Z,14.93
2022-07-26T10:40:22.474Z,18.65
2022-07-26T10:42:50.880Z,11.48
2022-07-26T10:45:24.079Z,18.60
2022-07-26T10:48:15.222Z,20.77
2022-07-26T10:50:46.869Z,17.02
2022-07-26T10:53:22.549Z,13.93
2022-07-26T10:55:52.536Z,14.32
2022-07-26T10:58:21.154Z,14.10
2022-07-26T11:01:00.747Z,14.52
2022-07-26T11:03:38.852Z,21.15
2022-07-26T11:06:16.762Z,11.95
2022-07-26T11:08:48.400Z,15.35
2022-07-26T11:11:29.860Z,18.45
2022-07-26T11:14:06.620Z,14.18
2022-07-26T11:20:39.133Z,11.77
2022-07-26T11:37:14.161Z,12.20
2022-07-26T11:40:19.287Z,12.18
2022-07-26T11:43:44.967Z,10.00
2022-07-26T11:54:22.671Z,11.88
2022-07-26T12:01:15.676Z,13.05
2022-07-26T12:03:48.601Z,12.48
2022-07-26T12:06:19.338Z,11.02
2022-07-26T12:08:54.199Z,12.43
2022-07-26T12:11:26.861Z,12.68
2022-07-26T12:13:58.491Z,10.65
2022-07-26T12:16:49.249Z,15.35
2022-07-26T12:19:29.903Z,12.65
2022-07-26T12:22:00.853Z,11.23
2022-07-26T12:24:38.895Z,10.05
2022-07-26T12:27:09.620Z,9.88
2022-07-26T12:29:39.409Z,11.80
2022-07-26T12:32:12.860Z,7.68
2022-07-26T12:34:43.047Z,11.80
2022-07-26T12:37:14.063Z,9.40
2022-07-26T12:39:44.148Z,11.80
2022-07-26T12:42:22.905Z,8.13
2022-07-26T12:45:03.822Z,6.00
2022-07-26T12:47:34.583Z,7.63
2022-07-26T12:50:03.930Z,10.00
2022-07-26T12:52:33.890Z,10.05
2022-07-26T12:55:03.745Z,8.00
2022-07-26T12:57:33.213Z,9.23
2022-07-26T13:00:06.631Z,9.18
2022-07-26T13:02:36.479Z,8.63
2022-07-26T13:05:05.597Z,8.98
2022-07-26T13:07:34.194Z,11.40
2022-07-26T13:12:51.756Z,7.10
2022-07-26T13:15:20.082Z,8.73
2022-07-26T13:17:51.616Z,11.00
2022-07-26T13:20:21.675Z,12.30
2022-07-26T13:22:50.024Z,8.15
2022-07-26T13:25:19.018Z,9.10
2022-07-26T13:27:48.922Z,6.30
2022-07-26T13:30:17.308Z,12.25
2022-07-26T13:32:45.669Z,9.32
2022-07-26T13:35:15.428Z,10.32
2022-07-26T13:37:43.765Z,12.15
2022-07-26T13:40:12.938Z,8.48
2022-07-26T13:42:41.271Z,11.68
2022-07-26T13:45:10.780Z,8.98
2022-07-26T13:47:39.083Z,8.73
2022-07-26T13:50:08.652Z,10.32
2022-07-26T13:52:38.458Z,7.60
2022-07-26T13:55:07.572Z,8.68
2022-07-26T13:57:47.054Z,8.63
2022-07-26T14:00:24.338Z,7.32
2022-07-26T14:02:52.750Z,7.70
2022-07-26T14:05:21.971Z,9.52
2022-07-26T14:07:52.463Z,8.35
2022-07-26T14:10:21.607Z,15.13
2022-07-26T14:12:50.117Z,6.00
2022-07-26T14:15:22.735Z,9.95
2022-07-26T14:17:52.365Z,10.45
2022-07-26T14:20:21.446Z,10.30
2022-07-26T14:22:53.672Z,9.40
2022-07-26T14:25:22.665Z,7.68
2022-07-26T14:27:52.090Z,9.90
2022-07-26T14:30:20.557Z,13.15
2022-07-26T14:32:49.211Z,8.05
2022-07-26T14:35:17.815Z,9.60
2022-07-26T14:37:46.465Z,9.93
2022-07-26T14:40:17.991Z,5.93
2022-07-26T14:42:47.219Z,7.78
2022-07-26T14:45:16.497Z,9.95
2022-07-26T14:47:44.843Z,10.20
2022-07-26T14:50:15.598Z,9.00
2022-07-26T14:52:46.111Z,9.32
2022-07-26T14:55:24.534Z,8.90
2022-07-26T14:57:53.491Z,12.57
2022-07-26T15:00:21.907Z,8.73
2022-07-26T15:02:50.563Z,10.20
2022-07-26T15:05:19.593Z,9.38
2022-07-26T15:07:48.082Z,10.13
2022-07-26T15:10:17.821Z,5.60
2022-07-26T15:12:46.222Z,5.55
2022-07-26T15:15:14.556Z,10.35
2022-07-26T15:17:43.262Z,10.38
2022-07-26T15:20:11.682Z,6.03
2022-07-26T15:22:40.056Z,9.18
2022-07-26T15:25:09.355Z,7.38
2022-07-26T15:27:39.140Z,8.25
2022-07-26T15:30:13.225Z,4.72
2022-07-26T15:32:43.323Z,6.25
2022-07-26T15:35:14.389Z,5.82
2022-07-26T15:37:44.825Z,7.50
2022-07-26T15:40:14.042Z,7.18
2022-07-26T15:42:46.604Z,9.60
2022-07-26T15:45:16.598Z,9.55
2022-07-26T15:47:59.085Z,6.70
2022-07-26T15:50:32.927Z,6.53
2022-07-26T15:53:01.339Z,3.50
2022-07-26T15:55:29.712Z,5.18
2022-07-26T15:57:59.688Z,6.13
2022-07-26T16:00:28.265Z,5.43
2022-07-26T16:02:56.552Z,7.25
2022-07-26T16:05:24.888Z,4.47
2022-07-26T16:07:53.178Z,5.28
2022-07-26T16:10:21.452Z,6.47
2022-07-26T16:12:49.761Z,11.38
2022-07-26T16:15:19.439Z,7.07
2022-07-26T16:17:47.801Z,8.45
2022-07-26T16:20:19.351Z,5.82
2022-07-26T16:22:48.176Z,7.80
2022-07-26T16:25:16.638Z,6.75
2022-07-26T16:27:45.131Z,5.00
2022-07-26T16:30:15.191Z,4.85
2022-07-26T16:32:44.939Z,4.78
2022-07-26T16:35:14.248Z,8.43
2022-07-26T16:37:42.614Z,5.40
2022-07-26T16:40:12.035Z,5.78
2022-07-26T16:42:40.398Z,5.53
2022-07-26T16:45:10.005Z,6.63
2022-07-26T16:47:38.425Z,8.73
2022-07-26T16:50:08.977Z,6.72
2022-07-26T16:52:37.512Z,4.90
2022-07-26T16:55:10.706Z,3.15
2022-07-26T16:57:39.639Z,4.93
2022-07-26T17:00:10.577Z,4.38
2022-07-26T17:02:39.321Z,6.53
2022-07-26T17:05:10.551Z,9.38
2022-07-26T17:07:38.968Z,9.82
2022-07-26T17:10:09.272Z,6.03
2022-07-26T17:12:38.504Z,9.52
2022-07-26T17:15:08.031Z,7.28
2022-07-26T17:17:36.320Z,5.63
2022-07-26T17:20:05.323Z,8.02
2022-07-26T17:22:35.142Z,6.65
2022-07-26T17:25:06.006Z,2.88
2022-07-26T17:27:35.586Z,9.70
2022-07-26T17:30:07.176Z,6.43
2022-07-26T17:32:36.155Z,2.35
2022-07-26T17:35:05.070Z,6.95
2022-07-26T17:37:35.744Z,6.65
2022-07-26T17:40:05.149Z,7.75
2022-07-26T17:42:36.485Z,7.10
2022-07-26T17:45:05.590Z,2.65
2022-07-26T17:47:34.131Z,5.43
2022-07-26T17:52:53.750Z,3.88
2022-07-26T17:55:22.787Z,4.53
2022-07-26T17:57:51.509Z,5.53
2022-07-26T18:00:21.020Z,3.97
2022-07-26T18:02:49.807Z,4.60
2022-07-26T18:05:19.901Z,5.63
2022-07-26T18:07:48.336Z,3.97
2022-07-26T18:10:22.117Z,3.17
2022-07-26T18:12:50.527Z,5.43
2022-07-26T18:15:18.901Z,6.40
2022-07-26T18:17:47.413Z,7.63
2022-07-26T18:20:15.706Z,5.30
2022-07-26T18:22:45.720Z,7.25
2022-07-26T18:25:18.449Z,6.45
2022-07-26T18:27:48.235Z,4.72
2022-07-26T18:30:16.651Z,6.95
2022-07-26T18:32:44.894Z,8.60
2022-07-26T18:35:13.265Z,5.63
2022-07-26T18:37:41.562Z,7.10
2022-07-26T18:40:10.743Z,5.40
2022-07-26T18:42:39.061Z,6.90
2022-07-26T18:45:09.823Z,5.10
2022-07-26T18:47:38.132Z,5.97
2022-07-26T18:50:08.125Z,11.05
2022-07-26T18:52:36.654Z,7.40
2022-07-26T18:55:07.719Z,6.50
2022-07-26T18:57:36.887Z,5.03
2022-07-26T19:00:07.230Z,9.02
2022-07-26T19:02:37.087Z,10.13
2022-07-26T19:05:06.172Z,6.85
2022-07-26T19:07:35.965Z,7.68
2022-07-26T19:10:04.475Z,6.20
2022-07-26T19:12:32.797Z,7.00
2022-07-26T19:15:01.389Z,5.18
2022-07-26T19:17:31.578Z,10.13
2022-07-26T19:20:02.934Z,8.82
2022-07-26T19:22:31.416Z,8.60
2022-07-26T19:24:59.990Z,11.18
2022-07-26T19:27:28.883Z,12.27
2022-07-26T19:29:58.047Z,5.57
2022-07-26T19:35:11.229Z,8.93
2022-07-26T19:37:39.549Z,8.07
2022-07-26T19:40:09.171Z,6.93
2022-07-26T19:42:37.541Z,6.40
2022-07-26T19:45:06.724Z,7.10
2022-07-26T19:47:35.796Z,6.60
2022-07-26T19:50:04.687Z,8.57
2022-07-26T19:52:34.496Z,4.32
2022-07-26T19:55:02.982Z,8.57
2022-07-26T19:57:31.396Z,5.97
2022-07-26T20:00:00.599Z,6.00
2022-07-26T20:02:29.032Z,9.60
2022-07-26T20:04:57.346Z,8.98
2022-07-26T20:07:26.034Z,4.13
2022-07-26T20:10:01.958Z,9.50
2022-07-26T20:12:30.456Z,6.22
2022-07-26T20:14:58.789Z,5.05
2022-07-26T20:17:27.310Z,8.85
2022-07-26T20:19:55.683Z,7.35
2022-07-26T20:22:24.465Z,9.77
2022-07-26T20:24:56.185Z,12.48
2022-07-26T20:27:26.017Z,9.27
2022-07-26T20:30:00.405Z,7.78
2022-07-26T20:32:29.340Z,10.18
2022-07-26T20:34:57.690Z,8.60
2022-07-26T20:37:26.052Z,7.07
2022-07-26T20:39:54.328Z,10.88
2022-07-26T20:42:23.249Z,4.95
2022-07-26T20:44:53.899Z,11.27
2022-07-26T20:47:23.006Z,4.38
2022-07-26T20:49:51.385Z,5.13
2022-07-26T20:52:19.785Z,5.07
2022-07-26T20:54:48.127Z,8.65
2022-07-26T20:57:16.591Z,7.68
2022-07-26T20:59:44.924Z,2.40
2022-07-26T21:02:14.718Z,10.77
2022-07-26T21:04:43.137Z,8.40
2022-07-26T21:07:11.403Z,8.77
2022-07-26T21:09:39.760Z,7.03
2022-07-26T21:12:08.989Z,6.75
2022-07-26T21:14:37.232Z,8.00
2022-07-26T21:17:11.021Z,6.50
2022-07-26T21:19:42.152Z,6.93
2022-07-26T21:22:10.567Z,4.78
2022-07-26T21:24:39.067Z,5.35
2022-07-26T21:27:07.963Z,7.47
2022-07-26T21:29:38.080Z,8.25
2022-07-26T21:32:08.175Z,10.38
2022-07-26T21:34:36.657Z,7.88
2022-07-26T21:37:06.609Z,9.80
2022-07-26T21:39:35.026Z,5.60
2022-07-26T21:42:03.414Z,8.32
2022-07-26T21:44:31.753Z,7.80
2022-07-26T21:47:00.356Z,7.82
2022-07-26T21:49:28.757Z,15.80
2022-07-26T21:51:57.187Z,7.68
2022-07-26T21:54:27.100Z,10.90
2022-07-26T21:56:55.471Z,6.43
2022-07-26T21:59:23.794Z,9.40
2022-07-26T22:01:52.237Z,3.38
2022-07-26T22:04:21.994Z,10.20
2022-07-26T22:06:50.364Z,7.65
2022-07-26T22:09:18.702Z,7.60
2022-07-26T22:11:48.495Z,8.32
2022-07-26T22:14:17.503Z,8.40
2022-07-26T22:16:47.645Z,7.45
2022-07-26T22:19:16.176Z,10.77
2022-07-26T22:21:44.577Z,12.30
2022-07-26T22:24:12.883Z,8.90
2022-07-26T22:26:42.190Z,8.98
2022-07-26T22:29:12.330Z,9.15
2022-07-26T22:31:40.904Z,8.50
2022-07-26T22:34:09.328Z,8.93
2022-07-26T22:36:40.019Z,9.65
2022-07-26T22:39:14.271Z,5.53
2022-07-26T22:42:12.859Z,3.10
2022-07-26T22:44:32.756Z,7.63
2022-07-26T22:47:01.010Z,16.85
2022-07-26T22:49:29.400Z,7.93
2022-07-26T22:51:57.802Z,10.70
2022-07-26T22:54:26.093Z,8.43
2022-07-26T22:56:54.414Z,11.95
2022-07-26T22:59:25.360Z,8.52
2022-07-26T23:01:55.070Z,7.93
2022-07-26T23:04:23.491Z,8.73
2022-07-26T23:06:52.177Z,9.52
2022-07-26T23:09:23.371Z,6.65
2022-07-26T23:11:51.680Z,12.35
2022-07-26T23:14:20.069Z,12.95
2022-07-26T23:16:48.396Z,11.05
2022-07-26T23:19:18.197Z,11.23
2022-07-26T23:21:46.798Z,7.07
2022-07-26T23:24:15.051Z,10.95
2022-07-26T23:26:43.358Z,13.75
2022-07-26T23:29:12.001Z,11.27
2022-07-26T23:31:42.247Z,11.57
2022-07-26T23:34:10.616Z,12.50
2022-07-26T23:36:40.414Z,7.50
2022-07-26T23:39:09.016Z,11.40
2022-07-26T23:41:37.424Z,11.05
2022-07-26T23:44:05.967Z,9.55
2022-07-26T23:46:34.386Z,6.55
2022-07-26T23:49:04.785Z,10.32
2022-07-26T23:51:33.263Z,11.02
2022-07-26T23:54:02.964Z,12.98
2022-07-26T23:56:31.306Z,6.32
2022-07-26T23:58:59.581Z,8.32
